Time;durP1;ratioP1;P1;durP2;ratioP2;P2;SDS_P1;SDS_P2;PMS_P1;PMS_P2;Temp;Humidity;BMP_temperature;BMP_pressure;BME280_temperature;BME280_humidity;BME280_pressure;Samples;Min_cycle;Max_cycle;Signal;HPM_P1;HPM_P2
2020/12/27 00:01:20;;;;;;;22.70;11.50;;;22.50;30.40;;;;;;6173347;28;84134;-41
2020/12/27 00:04:21;;;;;;;21.48;11.18;;;22.50;30.10;;;;;;6174188;28;84277;-41
2020/12/27 00:07:21;;;;;;;22.70;11.20;;;22.50;30.40;;;;;;6166357;27;84432;-41
2020/12/27 00:10:22;;;;;;;25.48;11.45;;;22.40;30.30;;;;;;6162019;28;83295;-41
2020/12/27 00:13:22;;;;;;;20.15;10.80;;;22.40;30.30;;;;;;6169632;28;83215;-41
2020/12/27 00:16:23;;;;;;;23.77;11.77;;;22.40;30.30;;;;;;6170147;28;83359;-42
2020/12/27 00:19:23;;;;;;;20.92;10.80;;;22.40;30.30;;;;;;6173476;28;83507;-41
2020/12/27 00:22:24;;;;;;;20.45;10.35;;;22.40;30.50;;;;;;6163831;28;83120;-41
2020/12/27 00:25:24;;;;;;;20.83;10.57;;;22.40;31.20;;;;;;6164379;28;83588;-41
2020/12/27 00:28:25;;;;;;;16.75;10.18;;;22.40;30.90;;;;;;6170188;28;82988;-41
2020/12/27 00:31:25;;;;;;;19.58;9.88;;;22.30;31.00;;;;;;6162430;27;83329;-41
2020/12/27 00:34:26;;;;;;;23.52;11.00;;;22.30;31.10;;;;;;6167847;28;81977;-41
2020/12/27 00:37:27;;;;;;;20.20;11.38;;;22.30;30.90;;;;;;6164726;27;83213;-41
2020/12/27 00:40:27;;;;;;;24.02;11.38;;;22.30;30.70;;;;;;6175121;28;86005;-41
2020/12/27 00:43:28;;;;;;;20.65;11.38;;;22.30;30.80;;;;;;6174056;28;83634;-41
2020/12/27 00:46:28;;;;;;;24.52;12.27;;;22.30;30.80;;;;;;6163595;28;86113;-41
2020/12/27 00:49:48;;;;;;;22.35;11.13;;;22.30;30.80;;;;;;6149096;27;83924;-41
2020/12/27 00:52:48;;;;;;;19.10;10.25;;;22.30;30.90;;;;;;6173789;28;86175;-41
2020/12/27 00:55:49;;;;;;;20.30;10.63;;;22.30;30.90;;;;;;6166555;28;83793;-41
2020/12/27 00:58:49;;;;;;;20.25;10.95;;;22.30;31.00;;;;;;6163404;28;84949;-41
2020/12/27 01:01:50;;;;;;;22.30;10.55;;;22.30;30.90;;;;;;6156261;28;88348;-41
2020/12/27 01:05:09;;;;;;;20.92;10.85;;;22.30;31.10;;;;;;6161419;28;83278;-41
2020/12/27 01:08:10;;;;;;;21.20;10.82;;;22.30;31.30;;;;;;6160188;28;85347;-41
2020/12/27 01:11:11;;;;;;;21.13;11.20;;;22.20;31.30;;;;;;6160297;28;85676;-41
2020/12/27 01:14:12;;;;;;;20.35;10.43;;;22.20;31.30;;;;;;6171886;28;86225;-41
2020/12/27 01:17:13;;;;;;;21.55;10.60;;;22.20;31.30;;;;;;6171130;27;86007;-41
2020/12/27 01:20:13;;;;;;;23.60;11.88;;;22.20;30.90;;;;;;6171991;28;86973;-42
2020/12/27 01:23:14;;;;;;;21.15;11.32;;;22.20;30.90;;;;;;6172447;27;85826;-41
2020/12/27 01:26:15;;;;;;;25.27;11.25;;;22.20;31.00;;;;;;6163466;28;85813;-41
2020/12/27 01:29:16;;;;;;;21.35;11.13;;;22.20;31.00;;;;;;6171398;28;85919;-41
2020/12/27 01:32:26;;;;;;;21.70;10.38;;;22.20;31.10;;;;;;6172002;28;86253;-41
2020/12/27 01:35:28;;;;;;;20.75;10.95;;;22.20;30.90;;;;;;6172003;28;85805;-40
2020/12/27 01:38:28;;;;;;;23.58;11.55;;;22.20;30.90;;;;;;6171392;27;85928;-41
2020/12/27 01:41:29;;;;;;;20.55;10.90;;;22.20;31.30;;;;;;6173421;28;85869;-41
2020/12/27 01:44:31;;;;;;;22.15;11.88;;;22.10;31.00;;;;;;6175510;28;85428;-41
2020/12/27 01:47:34;;;;;;;19.63;10.45;;;22.10;30.80;;;;;;6193846;28;85673;-41
2020/12/27 01:50:35;;;;;;;19.35;10.43;;;22.10;31.00;;;;;;6175449;27;85551;-41
2020/12/27 01:53:36;;;;;;;22.23;10.70;;;22.10;30.70;;;;;;6175617;28;86007;-41
2020/12/27 01:56:37;;;;;;;19.65;10.73;;;22.10;31.50;;;;;;6176353;28;84956;-41
2020/12/27 01:59:38;;;;;;;19.35;10.40;;;22.10;30.90;;;;;;6171669;28;85099;-41
2020/12/27 02:02:55;;;;;;;20.42;10.18;;;22.10;31.00;;;;;;6175945;28;84164;-41
2020/12/27 02:06:01;;;;;;;19.98;10.75;;;22.10;30.90;;;;;;6154895;27;87862;-41
2020/12/27 02:09:03;;;;;;;20.65;11.45;;;22.10;30.90;;;;;;6176308;28;84147;-41
2020/12/27 02:12:13;;;;;;;18.67;10.43;;;22.10;30.80;;;;;;6172861;28;86063;-41
2020/12/27 02:15:19;;;;;;;20.45;10.40;;;22.10;30.90;;;;;;6170403;28;89833;-40
2020/12/27 02:18:38;;;;;;;19.88;10.43;;;22.10;30.90;;;;;;6165941;28;84735;-40
2020/12/27 02:21:43;;;;;;;17.33;10.00;;;22.10;30.80;;;;;;6171382;28;84244;-41
2020/12/27 02:24:51;;;;;;;21.35;10.38;;;22.00;30.80;;;;;;6147541;28;85933;-41
2020/12/27 02:27:56;;;;;;;20.83;10.30;;;22.00;30.90;;;;;;6147952;28;85041;-41
2020/12/27 02:30:57;;;;;;;21.17;10.43;;;22.00;30.80;;;;;;6156922;28;83391;-41
2020/12/27 02:33:57;;;;;;;19.60;10.32;;;22.00;30.80;;;;;;6174294;27;85816;-41
2020/12/27 02:36:59;;;;;;;20.52;10.93;;;21.90;30.60;;;;;;6174007;28;85450;-40
2020/12/27 02:40:11;;;;;;;19.70;10.32;;;22.00;30.80;;;;;;6174182;27;85415;-41
2020/12/27 02:43:38;;;;;;;18.55;10.25;;;22.00;30.80;;;;;;6174556;28;83641;-41
2020/12/27 02:46:38;;;;;;;20.08;10.02;;;22.00;30.60;;;;;;6173451;28;83914;-41
2020/12/27 02:49:58;;;;;;;20.48;10.00;;;21.90;30.50;;;;;;6173316;28;84180;-41
2020/12/27 02:52:58;;;;;;;20.85;10.35;;;22.00;30.30;;;;;;6175128;28;83213;-41
2020/12/27 02:55:59;;;;;;;21.00;9.95;;;22.00;30.30;;;;;;6171241;28;85120;-41
2020/12/27 02:58:59;;;;;;;18.35;9.93;;;21.90;30.20;;;;;;6177871;27;84067;-41
2020/12/27 03:02:00;;;;;;;18.17;9.50;;;22.00;30.50;;;;;;6169249;28;80865;-41
2020/12/27 03:05:30;;;;;;;19.48;10.55;;;21.90;30.20;;;;;;6165645;28;81534;-41
2020/12/27 03:08:30;;;;;;;19.17;10.13;;;21.90;30.20;;;;;;6169846;28;83666;-41
2020/12/27 03:11:47;;;;;;;16.83;9.35;;;21.90;30.30;;;;;;6172974;28;85619;-41
2020/12/27 03:14:47;;;;;;;19.95;10.32;;;21.90;30.10;;;;;;6179019;28;82770;-41
2020/12/27 03:18:07;;;;;;;18.90;9.05;;;22.00;30.20;;;;;;6177141;28;83493;-41
2020/12/27 03:21:36;;;;;;;18.38;8.85;;;22.00;30.60;;;;;;6170520;28;87579;-41
2020/12/27 03:24:42;;;;;;;17.80;8.65;;;21.90;31.30;;;;;;6178593;27;83452;-41
2020/12/27 03:28:01;;;;;;;16.00;8.25;;;21.90;31.50;;;;;;6175405;28;84647;-42
2020/12/27 03:31:02;;;;;;;18.25;8.35;;;21.90;30.90;;;;;;6177961;28;82343;-41
2020/12/27 03:34:06;;;;;;;16.23;7.45;;;21.90;31.00;;;;;;6166130;28;82611;-41
2020/12/27 03:37:07;;;;;;;16.77;8.13;;;21.90;30.90;;;;;;6176370;28;82207;-41
2020/12/27 03:40:30;;;;;;;14.02;7.93;;;21.90;30.60;;;;;;6165915;27;80868;-41
2020/12/27 03:43:53;;;;;;;16.83;8.35;;;21.90;31.00;;;;;;6172964;28;81264;-41
2020/12/27 03:47:35;;;;;;;15.32;8.02;;;21.90;30.70;;;;;;6185983;27;80590;-41
2020/12/27 03:50:50;;;;;;;14.30;7.47;;;21.90;30.70;;;;;;6168783;28;80935;-41
2020/12/27 03:53:51;;;;;;;13.13;7.20;;;21.90;30.60;;;;;;6167813;27;82542;-41
2020/12/27 03:57:30;;;;;;;14.35;7.43;;;21.90;30.80;;;;;;6133138;28;85684;-41
2020/12/27 04:01:03;;;;;;;12.68;7.20;;;21.90;30.90;;;;;;6114222;28;80336;-41
2020/12/27 04:04:06;;;;;;;14.50;6.78;;;21.90;31.10;;;;;;6176400;28;84919;-41
2020/12/27 04:07:07;;;;;;;12.68;7.65;;;21.80;31.00;;;;;;6170946;28;84278;-41
2020/12/27 04:10:16;;;;;;;13.13;6.88;;;21.80;31.40;;;;;;6193441;28;83009;-41
2020/12/27 04:13:17;;;;;;;11.90;6.45;;;21.80;31.70;;;;;;6176941;28;81146;-41
2020/12/27 04:16:25;;;;;;;12.13;6.15;;;21.80;31.80;;;;;;6177396;28;83215;-41
2020/12/27 04:19:29;;;;;;;11.82;6.05;;;21.80;31.80;;;;;;6176013;28;82861;-41
2020/12/27 04:22:40;;;;;;;11.40;6.20;;;21.80;32.30;;;;;;6170209;28;83482;-41
2020/12/27 04:25:44;;;;;;;12.88;6.75;;;21.80;32.60;;;;;;6173171;28;82932;-41
2020/12/27 04:28:44;;;;;;;11.43;5.80;;;21.80;32.50;;;;;;6176779;28;83341;-41
2020/12/27 04:31:45;;;;;;;10.18;5.68;;;21.90;32.50;;;;;;6178990;28;81455;-41
2020/12/27 04:35:04;;;;;;;9.73;5.13;;;21.80;32.40;;;;;;6178808;27;80932;-41
2020/12/27 04:38:08;;;;;;;13.57;6.30;;;21.80;32.40;;;;;;6176917;28;82597;-41
2020/12/27 04:41:14;;;;;;;9.43;5.13;;;21.80;32.30;;;;;;6168371;28;81715;-41
2020/12/27 04:44:17;;;;;;;9.35;5.00;;;21.80;32.40;;;;;;6175654;28;82825;-41
2020/12/27 04:47:20;;;;;;;10.52;5.75;;;21.80;32.30;;;;;;6172736;27;82080;-40
2020/12/27 04:50:41;;;;;;;9.52;5.60;;;21.80;32.20;;;;;;6169617;28;81937;-40
2020/12/27 04:53:42;;;;;;;10.77;5.43;;;21.80;32.10;;;;;;6176787;28;82943;-40
2020/12/27 04:56:50;;;;;;;9.35;5.05;;;21.80;32.30;;;;;;6175517;28;82823;-40
2020/12/27 04:59:53;;;;;;;9.85;4.88;;;21.80;31.90;;;;;;6165370;27;82233;-40
2020/12/27 05:03:14;;;;;;;9.27;4.65;;;21.80;31.80;;;;;;6139333;28;81553;-40
2020/12/27 05:06:17;;;;;;;9.45;5.40;;;21.80;32.00;;;;;;6162687;28;86655;-40
2020/12/27 05:09:18;;;;;;;10.45;4.72;;;21.80;31.60;;;;;;6170484;28;80773;-40
2020/12/27 05:12:18;;;;;;;7.82;4.57;;;21.80;31.90;;;;;;6193617;28;83278;-40
2020/12/27 05:15:19;;;;;;;9.45;4.47;;;21.80;31.60;;;;;;6172283;28;82812;-40
2020/12/27 05:18:19;;;;;;;10.73;5.00;;;21.80;32.40;;;;;;6181029;28;82770;-40
2020/12/27 05:21:22;;;;;;;8.55;4.80;;;21.90;31.90;;;;;;6176857;28;86267;-41
2020/12/27 05:24:22;;;;;;;7.85;4.50;;;22.00;31.20;;;;;;6169462;28;87474;-41
2020/12/27 05:27:39;;;;;;;9.45;4.93;;;22.00;30.90;;;;;;6193040;28;83360;-41
2020/12/27 05:31:02;;;;;;;8.32;4.88;;;22.10;30.90;;;;;;6155280;28;81481;-40
2020/12/27 05:34:32;;;;;;;10.15;4.78;;;22.10;31.20;;;;;;6167412;28;81031;-40
2020/12/27 05:37:51;;;;;;;7.95;4.40;;;22.20;31.60;;;;;;6180826;28;82521;-41
2020/12/27 05:41:11;;;;;;;8.07;4.45;;;22.20;31.40;;;;;;6168193;28;81036;-41
2020/12/27 05:44:21;;;;;;;10.00;5.15;;;22.20;31.40;;;;;;6180177;28;83160;-41
2020/12/27 05:47:27;;;;;;;8.73;4.55;;;22.30;31.00;;;;;;6181088;27;81732;-40
2020/12/27 05:50:28;;;;;;;7.93;4.18;;;22.30;31.40;;;;;;6179364;28;82146;-41
2020/12/27 05:53:28;;;;;;;7.25;4.53;;;22.40;31.10;;;;;;6180373;28;80341;-41
2020/12/27 05:56:33;;;;;;;9.70;5.03;;;22.40;30.30;;;;;;6177619;28;83545;-41
2020/12/27 05:59:37;;;;;;;8.93;4.55;;;22.40;30.60;;;;;;6177225;28;83583;-41
2020/12/27 06:02:52;;;;;;;10.18;4.85;;;22.40;31.90;;;;;;6179421;28;83084;-41
2020/12/27 06:05:59;;;;;;;10.52;5.03;;;22.40;32.70;;;;;;6166652;28;83168;-42
2020/12/27 06:09:04;;;;;;;8.30;4.55;;;22.40;33.00;;;;;;6167091;28;83475;-41
2020/12/27 06:12:11;;;;;;;10.43;5.68;;;22.40;33.40;;;;;;6165475;28;83000;-41
2020/12/27 06:15:16;;;;;;;9.07;4.97;;;22.40;34.10;;;;;;6178950;28;81706;-41
2020/12/27 06:18:35;;;;;;;8.68;4.63;;;22.40;34.20;;;;;;6170562;28;84679;-41
2020/12/27 06:21:41;;;;;;;;;;;22.40;34.80;;;;;;6185201;28;83143;-42
2020/12/27 06:24:43;;;;;;;9.95;5.45;;;22.40;34.70;;;;;;6179821;28;82211;-42
2020/12/27 06:27:44;;;;;;;12.35;5.90;;;22.50;35.00;;;;;;6178053;28;80572;-42
2020/12/27 06:30:45;;;;;;;9.48;5.50;;;22.50;35.40;;;;;;6173466;27;81760;-41
2020/12/27 06:34:21;;;;;;;15.07;6.47;;;22.50;35.50;;;;;;6175149;28;80834;-41
2020/12/27 06:37:24;;;;;;;8.85;5.20;;;22.50;35.60;;;;;;6162561;27;83247;-42
2020/12/27 06:40:44;;;;;;;9.23;5.30;;;22.50;35.70;;;;;;6171806;28;80672;-42
2020/12/27 06:43:56;;;;;;;10.50;5.57;;;22.60;35.70;;;;;;6167546;28;84318;-42
2020/12/27 06:47:04;;;;;;;9.18;5.35;;;22.50;35.80;;;;;;6170614;27;82174;-42
2020/12/27 06:50:15;;;;;;;10.30;5.82;;;22.60;35.90;;;;;;6173375;28;83355;-42
2020/12/27 06:53:18;;;;;;;8.20;4.65;;;22.60;35.70;;;;;;6137773;28;81357;-42
2020/12/27 06:56:32;;;;;;;10.20;5.55;;;22.60;35.60;;;;;;6169073;28;83107;-41
2020/12/27 06:59:53;;;;;;;12.98;6.22;;;22.70;35.90;;;;;;6157435;28;82077;-41
2020/12/27 07:02:56;;;;;;;13.02;5.45;;;22.70;36.10;;;;;;6145887;28;82531;-42
2020/12/27 07:05:56;;;;;;;9.02;5.15;;;22.70;36.50;;;;;;6165940;28;82869;-41
2020/12/27 07:08:57;;;;;;;16.02;5.68;;;22.80;36.60;;;;;;6171370;28;80276;-42
2020/12/27 07:11:58;;;;;;;11.27;5.07;;;22.80;36.40;;;;;;6177033;28;80366;-42
2020/12/27 07:14:58;;;;;;;12.80;5.57;;;22.80;36.50;;;;;;6177408;28;83111;-41
2020/12/27 07:17:59;;;;;;;14.85;5.72;;;22.90;36.50;;;;;;6169624;28;80977;-42
2020/12/27 07:21:00;;;;;;;9.20;5.13;;;23.00;36.10;;;;;;6179135;28;80678;-44
2020/12/27 07:24:01;;;;;;;10.85;5.35;;;23.00;35.70;;;;;;6175326;28;83019;-43
2020/12/27 07:27:01;;;;;;;14.70;5.82;;;23.10;35.50;;;;;;6176802;28;80415;-46
2020/12/27 07:30:02;;;;;;;11.13;5.25;;;23.10;35.20;;;;;;6167581;28;80638;-44
2020/12/27 07:33:02;;;;;;;8.48;5.35;;;23.10;35.00;;;;;;6176513;28;81841;-43
2020/12/27 07:36:03;;;;;;;9.77;5.53;;;23.20;34.80;;;;;;6173806;28;81257;-47
2020/12/27 07:39:04;;;;;;;10.20;5.50;;;23.20;35.00;;;;;;6172383;28;83406;-43
2020/12/27 07:42:04;;;;;;;9.27;5.68;;;23.30;35.10;;;;;;6174271;28;81310;-41
2020/12/27 07:45:05;;;;;;;10.48;5.63;;;23.30;35.00;;;;;;6177850;27;81568;-41
2020/12/27 07:48:05;;;;;;;11.77;5.88;;;23.40;34.90;;;;;;6173125;28;82208;-41
2020/12/27 07:51:06;;;;;;;12.05;6.30;;;23.40;34.70;;;;;;6170425;28;88813;-41
2020/12/27 07:54:07;;;;;;;9.82;5.63;;;23.50;33.80;;;;;;6176134;28;81199;-41
2020/12/27 07:57:07;;;;;;;10.30;6.20;;;23.60;33.10;;;;;;6176609;28;82125;-42
2020/12/27 08:00:08;;;;;;;12.13;6.25;;;23.70;32.50;;;;;;6174380;28;81384;-42
2020/12/27 08:03:14;;;;;;;12.43;7.05;;;23.80;32.10;;;;;;6174256;28;81582;-41
2020/12/27 08:06:15;;;;;;;12.45;6.65;;;23.80;31.40;;;;;;6176425;28;80856;-41
2020/12/27 08:09:15;;;;;;;12.88;7.07;;;23.90;31.00;;;;;;6166259;27;80377;-41
2020/12/27 08:12:16;;;;;;;16.20;7.60;;;23.90;30.70;;;;;;6172887;28;86766;-42
2020/12/27 08:15:17;;;;;;;13.65;7.32;;;23.90;30.60;;;;;;6174422;27;81017;-41
2020/12/27 08:18:17;;;;;;;16.40;7.10;;;24.00;30.60;;;;;;6171369;28;80896;-41
2020/12/27 08:21:18;;;;;;;13.38;7.55;;;24.00;31.00;;;;;;6170575;27;81212;-46
2020/12/27 08:24:18;;;;;;;13.52;7.28;;;24.20;31.60;;;;;;6167519;28;80483;-42
2020/12/27 08:27:19;;;;;;;16.95;7.75;;;24.30;31.10;;;;;;6173391;28;81292;-47
2020/12/27 08:30:19;;;;;;;12.88;7.85;;;24.40;30.80;;;;;;6176263;28;80557;-45
2020/12/27 08:33:20;;;;;;;13.68;7.65;;;24.40;30.30;;;;;;6172855;27;80656;-45
2020/12/27 08:36:21;;;;;;;15.45;7.60;;;24.30;30.70;;;;;;6167328;28;80078;-45
2020/12/27 08:39:21;;;;;;;15.43;7.72;;;24.30;30.80;;;;;;6166851;27;86137;-48
2020/12/27 08:42:22;;;;;;;15.20;7.63;;;24.30;31.50;;;;;;6169195;28;80492;-45
2020/12/27 08:45:22;;;;;;;16.02;7.47;;;24.40;30.00;;;;;;6171481;28;80622;-46
2020/12/27 08:48:23;;;;;;;15.48;7.35;;;24.40;30.10;;;;;;6166045;28;80543;-45
2020/12/27 08:51:23;;;;;;;14.25;7.55;;;24.40;30.50;;;;;;6168309;28;80576;-48
2020/12/27 08:54:24;;;;;;;12.88;7.43;;;24.40;30.20;;;;;;6174305;28;81520;-48
2020/12/27 08:57:24;;;;;;;18.33;8.63;;;24.50;30.90;;;;;;6174100;28;81078;-45
2020/12/27 09:00:25;;;;;;;12.43;7.15;;;24.50;31.20;;;;;;6173902;28;80903;-48
2020/12/27 09:03:25;;;;;;;17.50;7.25;;;24.60;30.60;;;;;;6171801;28;81112;-45
2020/12/27 09:06:26;;;;;;;13.98;7.15;;;24.60;30.90;;;;;;6170799;28;84060;-46
2020/12/27 09:09:26;;;;;;;11.55;6.85;;;24.60;30.80;;;;;;6169488;28;80325;-45
2020/12/27 09:12:27;;;;;;;11.90;6.90;;;24.70;30.80;;;;;;6178096;28;80769;-48
2020/12/27 09:15:27;;;;;;;14.80;7.25;;;24.70;31.20;;;;;;6171038;28;81045;-46
2020/12/27 09:18:28;;;;;;;16.50;7.82;;;24.70;31.40;;;;;;6176545;28;80735;-51
2020/12/27 09:21:29;;;;;;;13.63;8.27;;;24.80;31.20;;;;;;6176225;28;80278;-48
2020/12/27 09:24:29;;;;;;;15.02;8.57;;;24.80;31.60;;;;;;6164685;28;80682;-48
2020/12/27 09:27:30;;;;;;;13.35;7.45;;;24.90;31.50;;;;;;6175318;27;81669;-47
2020/12/27 09:30:30;;;;;;;18.70;9.10;;;24.90;31.40;;;;;;6172989;28;80430;-45
2020/12/27 09:33:31;;;;;;;16.60;9.77;;;24.90;31.30;;;;;;6170660;28;82685;-50
2020/12/27 09:36:31;;;;;;;16.60;9.40;;;24.90;31.10;;;;;;6176885;28;81514;-47
2020/12/27 09:39:32;;;;;;;17.90;9.63;;;25.00;30.90;;;;;;6176015;27;87123;-48
2020/12/27 09:42:32;;;;;;;16.60;9.02;;;25.10;31.10;;;;;;6175909;28;81045;-48
2020/12/27 09:45:33;;;;;;;15.73;9.15;;;25.10;31.10;;;;;;6178235;28;80777;-48
2020/12/27 09:48:33;;;;;;;17.60;10.10;;;25.10;31.10;;;;;;6178208;28;80683;-47
2020/12/27 09:51:34;;;;;;;19.05;10.20;;;25.20;31.10;;;;;;6177491;27;82943;-45
2020/12/27 09:54:34;;;;;;;19.13;10.93;;;25.20;30.80;;;;;;6176985;28;84485;-49
2020/12/27 09:57:35;;;;;;;15.23;9.20;;;25.20;30.60;;;;;;6159814;28;83021;-45
2020/12/27 10:00:35;;;;;;;20.02;10.15;;;25.20;30.30;;;;;;6148858;28;83846;-48
2020/12/27 10:03:36;;;;;;;15.50;9.65;;;25.20;30.30;;;;;;6153932;28;85433;-46
2020/12/27 10:06:36;;;;;;;24.23;10.02;;;25.20;30.10;;;;;;6153350;28;84075;-44
2020/12/27 10:09:37;;;;;;;18.23;10.10;;;25.20;29.90;;;;;;6151333;28;83705;-45
2020/12/27 10:12:37;;;;;;;16.95;9.68;;;25.30;29.80;;;;;;6170400;28;83424;-45
2020/12/27 10:15:38;;;;;;;16.55;9.80;;;25.30;29.50;;;;;;6173550;28;83881;-46
2020/12/27 10:18:38;;;;;;;15.55;8.98;;;25.40;29.60;;;;;;6148337;28;80770;-43
2020/12/27 10:21:39;;;;;;;17.38;9.52;;;25.40;29.70;;;;;;6158205;28;80794;-44
2020/12/27 10:24:40;;;;;;;18.95;8.15;;;25.50;29.90;;;;;;6180906;28;80771;-46
2020/12/27 10:27:40;;;;;;;15.55;8.38;;;25.50;30.60;;;;;;6173453;28;80726;-44
2020/12/27 10:30:41;;;;;;;13.82;8.18;;;25.60;31.10;;;;;;6176609;28;81718;-45
2020/12/27 10:33:41;;;;;;;16.38;8.20;;;25.50;26.80;;;;;;6178497;27;81546;-45
2020/12/27 10:36:42;;;;;;;14.23;8.52;;;25.50;28.30;;;;;;6175170;28;80561;-45
2020/12/27 10:39:42;;;;;;;15.25;8.00;;;25.50;28.20;;;;;;6145971;27;81780;-48
2020/12/27 10:42:43;;;;;;;14.65;7.90;;;25.60;28.60;;;;;;6173371;28;81699;-44
2020/12/27 10:45:43;;;;;;;13.13;7.63;;;25.60;29.00;;;;;;6175999;28;80961;-44
2020/12/27 10:48:44;;;;;;;11.60;7.35;;;25.70;29.10;;;;;;6179011;28;80492;-44
2020/12/27 10:51:44;;;;;;;11.85;6.68;;;25.70;29.20;;;;;;6177419;27;81454;-44
2020/12/27 10:54:45;;;;;;;12.65;6.82;;;25.80;29.30;;;;;;6179436;28;80977;-45
2020/12/27 10:57:45;;;;;;;14.52;7.43;;;25.80;29.30;;;;;;6178725;27;80773;-45
2020/12/27 11:00:46;;;;;;;12.52;7.47;;;25.90;29.50;;;;;;6179174;28;82602;-45
2020/12/27 11:03:47;;;;;;;12.10;6.57;;;25.90;29.50;;;;;;6171806;28;80411;-46
2020/12/27 11:06:47;;;;;;;12.50;7.65;;;26.00;29.50;;;;;;6180605;28;80633;-45
2020/12/27 11:09:48;;;;;;;11.48;6.65;;;26.00;29.40;;;;;;6179010;27;81288;-45
2020/12/27 11:12:48;;;;;;;9.27;6.47;;;26.10;29.50;;;;;;6178588;28;81243;-45
2020/12/27 11:15:49;;;;;;;10.38;6.82;;;26.10;29.20;;;;;;6174824;27;80470;-44
2020/12/27 11:18:49;;;;;;;10.40;6.38;;;26.10;29.40;;;;;;6178682;28;82583;-45
2020/12/27 11:21:50;;;;;;;11.07;6.28;;;26.10;29.20;;;;;;6171486;28;81157;-46
2020/12/27 11:24:50;;;;;;;13.15;6.57;;;26.10;29.40;;;;;;6168013;28;81005;-45
2020/12/27 11:27:51;;;;;;;10.35;6.25;;;26.20;29.60;;;;;;6166698;28;80888;-48
2020/12/27 11:30:51;;;;;;;10.95;6.82;;;26.20;30.10;;;;;;6178236;28;80685;-47
2020/12/27 11:33:52;;;;;;;11.68;6.15;;;26.30;29.90;;;;;;6169173;28;82369;-51
2020/12/27 11:36:52;;;;;;;12.25;6.55;;;26.30;30.10;;;;;;6158241;28;80782;-48
2020/12/27 11:39:53;;;;;;;11.05;6.28;;;26.40;30.90;;;;;;6177778;28;80885;-46
2020/12/27 11:42:53;;;;;;;13.02;6.28;;;26.40;31.00;;;;;;6178082;28;80630;-50
2020/12/27 11:45:54;;;;;;;10.95;6.35;;;26.40;31.30;;;;;;6176418;27;80463;-50
2020/12/27 11:48:54;;;;;;;11.93;7.10;;;26.40;31.60;;;;;;6177699;28;81609;-47
2020/12/27 11:51:55;;;;;;;12.07;6.60;;;26.50;31.70;;;;;;6164698;28;80420;-47
2020/12/27 11:54:55;;;;;;;12.75;6.75;;;26.50;31.90;;;;;;6151673;28;80892;-49
2020/12/27 11:57:56;;;;;;;10.57;6.03;;;26.50;31.50;;;;;;6175043;28;82318;-48
2020/12/27 12:00:57;;;;;;;11.43;6.63;;;26.50;31.50;;;;;;6171175;28;80896;-50
2020/12/27 12:03:57;;;;;;;13.38;6.60;;;26.50;31.80;;;;;;6151932;28;80409;-50
2020/12/27 12:06:57;;;;;;;13.13;6.85;;;26.60;32.00;;;;;;6177580;28;81379;-46
2020/12/27 12:09:58;;;;;;;8.50;5.55;;;26.60;32.10;;;;;;6167615;28;80739;-46
2020/12/27 12:12:59;;;;;;;11.25;6.75;;;26.60;32.00;;;;;;6141238;28;80622;-47
2020/12/27 12:15:59;;;;;;;10.90;6.60;;;26.60;32.00;;;;;;6146752;28;81008;-49
2020/12/27 12:19:00;;;;;;;10.80;6.22;;;26.60;31.80;;;;;;6145388;28;80552;-47
2020/12/27 12:22:00;;;;;;;12.40;6.53;;;26.60;31.90;;;;;;6151883;28;81587;-50
2020/12/27 12:25:01;;;;;;;10.23;6.10;;;26.70;32.10;;;;;;6150345;28;81119;-47
2020/12/27 12:28:01;;;;;;;13.60;5.72;;;26.70;31.90;;;;;;6145018;28;80721;-47
2020/12/27 12:31:02;;;;;;;9.70;6.25;;;26.70;31.80;;;;;;6151235;28;81654;-45
2020/12/27 12:34:02;;;;;;;12.43;6.53;;;26.70;31.80;;;;;;6154709;28;81308;-47
2020/12/27 12:37:03;;;;;;;9.52;5.78;;;26.60;35.00;;;;;;6173215;28;80379;-46
2020/12/27 12:40:03;;;;;;;11.85;6.22;;;26.60;36.40;;;;;;6159810;28;80955;-44
2020/12/27 12:43:04;;;;;;;9.90;6.03;;;26.50;34.40;;;;;;6172215;28;81567;-45
2020/12/27 12:46:04;;;;;;;15.50;5.93;;;26.60;36.30;;;;;;6177282;28;81834;-44
2020/12/27 12:49:05;;;;;;;12.10;5.88;;;26.60;36.40;;;;;;6178994;28;81579;-44
2020/12/27 12:52:05;;;;;;;9.90;5.68;;;26.60;38.10;;;;;;6174599;28;83820;-46
2020/12/27 12:55:06;;;;;;;12.00;6.00;;;26.70;38.80;;;;;;6176094;28;84472;-45
2020/12/27 12:58:07;;;;;;;10.45;6.20;;;26.70;40.20;;;;;;6171793;28;81819;-45
2020/12/27 13:01:07;;;;;;;15.40;6.15;;;26.70;40.00;;;;;;6172970;28;80880;-47
2020/12/27 13:04:26;;;;;;;9.95;5.88;;;26.70;39.30;;;;;;6172166;27;80615;-49
2020/12/27 13:07:27;;;;;;;9.85;5.35;;;26.80;38.80;;;;;;6174184;28;80681;-49
2020/12/27 13:10:27;;;;;;;10.48;5.50;;;26.80;39.40;;;;;;6168101;28;80716;-49
2020/12/27 13:13:28;;;;;;;13.25;7.68;;;26.80;40.40;;;;;;6175162;28;81557;-46
2020/12/27 13:16:28;;;;;;;13.90;7.93;;;26.70;34.60;;;;;;6178831;28;80719;-47
2020/12/27 13:19:29;;;;;;;13.80;8.52;;;26.50;32.90;;;;;;6178004;28;80937;-49
2020/12/27 13:22:29;;;;;;;24.70;8.20;;;26.30;31.10;;;;;;6159123;28;80606;-47
2020/12/27 13:25:30;;;;;;;15.98;8.50;;;26.20;29.70;;;;;;6165941;28;83469;-45
2020/12/27 13:28:30;;;;;;;15.23;8.85;;;26.00;29.90;;;;;;6170246;28;80587;-46
2020/12/27 13:31:31;;;;;;;16.48;8.77;;;25.90;29.10;;;;;;6178055;28;82765;-46
2020/12/27 13:34:31;;;;;;;15.98;9.23;;;25.90;28.60;;;;;;6175199;28;80751;-48
2020/12/27 13:37:32;;;;;;;14.65;8.77;;;25.80;28.00;;;;;;6179240;28;81006;-48
2020/12/27 13:40:32;;;;;;;13.25;9.05;;;25.70;28.00;;;;;;6178660;27;81443;-47
2020/12/27 13:43:52;;;;;;;15.88;9.57;;;25.60;27.80;;;;;;6168936;28;80801;-50
2020/12/27 13:46:52;;;;;;;15.88;10.43;;;25.50;27.50;;;;;;6169743;28;81891;-47
2020/12/27 13:49:53;;;;;;;16.33;10.20;;;25.40;27.60;;;;;;6148458;28;83332;-48
2020/12/27 13:52:53;;;;;;;18.40;10.27;;;25.30;27.30;;;;;;6173570;28;83395;-48
2020/12/27 13:55:54;;;;;;;17.70;9.98;;;25.30;27.10;;;;;;6165857;28;83625;-47
2020/12/27 13:58:54;;;;;;;15.80;9.43;;;25.20;27.10;;;;;;6165800;28;83391;-48
2020/12/27 14:01:55;;;;;;;18.02;10.05;;;25.10;27.10;;;;;;6171293;28;82781;-48
2020/12/27 14:04:55;;;;;;;16.73;10.15;;;24.90;26.80;;;;;;6174369;27;82811;-50
2020/12/27 14:07:56;;;;;;;20.63;10.10;;;24.90;26.90;;;;;;6176810;28;83521;-47
2020/12/27 14:10:56;;;;;;;18.50;10.80;;;24.80;26.70;;;;;;6177894;27;83391;-48
2020/12/27 14:13:57;;;;;;;21.00;12.10;;;24.70;26.40;;;;;;6175223;28;86261;-46
2020/12/27 14:16:57;;;;;;;19.30;11.38;;;24.60;26.50;;;;;;6172343;27;86014;-48
2020/12/27 14:19:58;;;;;;;21.35;12.35;;;24.50;26.50;;;;;;6175475;28;82825;-51
2020/12/27 14:22:58;;;;;;;21.60;13.15;;;24.30;26.50;;;;;;6162780;28;84160;-47
2020/12/27 14:25:59;;;;;;;24.17;12.68;;;24.30;26.30;;;;;;6166999;28;84165;-47
2020/12/27 14:29:00;;;;;;;23.85;12.93;;;24.10;26.00;;;;;;6166343;28;83575;-48
2020/12/27 14:32:00;;;;;;;22.08;13.98;;;24.00;26.10;;;;;;6164044;27;82991;-47
2020/12/27 14:35:01;;;;;;;24.40;13.98;;;23.90;26.40;;;;;;6141046;28;83518;-48
2020/12/27 14:38:01;;;;;;;21.90;12.82;;;24.00;27.40;;;;;;6163227;28;85332;-48
2020/12/27 14:41:02;;;;;;;19.73;11.48;;;24.10;28.00;;;;;;6163643;28;84106;-46
2020/12/27 14:44:02;;;;;;;17.88;11.50;;;24.20;28.90;;;;;;6167926;28;84537;-47
2020/12/27 14:47:03;;;;;;;29.92;12.25;;;24.20;29.70;;;;;;6171007;28;84127;-46
2020/12/27 14:50:03;;;;;;;19.92;11.77;;;24.30;29.30;;;;;;6163054;28;83003;-46
2020/12/27 14:53:04;;;;;;;18.67;10.60;;;24.30;29.40;;;;;;6174843;28;83633;-46
2020/12/27 14:56:04;;;;;;;29.00;20.27;;;24.40;29.50;;;;;;6176929;28;83345;-43
2020/12/27 14:59:05;;;;;;;28.15;18.23;;;24.40;29.90;;;;;;6173181;27;83719;-43
2020/12/27 15:02:05;;;;;;;29.50;19.00;;;24.50;29.60;;;;;;6168328;28;82874;-44
2020/12/27 15:05:06;;;;;;;28.92;18.73;;;24.60;29.70;;;;;;6175213;28;83903;-43
2020/12/27 15:08:06;;;;;;;29.90;19.13;;;24.60;29.70;;;;;;6174993;28;86104;-42
2020/12/27 15:11:07;;;;;;;26.92;17.55;;;24.60;29.60;;;;;;6163667;28;83108;-44
2020/12/27 15:14:07;;;;;;;25.67;17.35;;;24.60;29.60;;;;;;6167927;28;83203;-44
2020/12/27 15:17:08;;;;;;;28.42;17.52;;;24.70;29.60;;;;;;6163613;28;83369;-43
2020/12/27 15:20:10;;;;;;;25.42;16.15;;;24.70;29.70;;;;;;6174852;28;83085;-44
2020/12/27 15:23:11;;;;;;;25.25;15.40;;;24.70;29.80;;;;;;6176641;28;84169;-43
2020/12/27 15:26:11;;;;;;;24.83;16.02;;;24.70;30.00;;;;;;6170382;28;84035;-43
2020/12/27 15:29:12;;;;;;;25.20;16.13;;;24.70;30.10;;;;;;6156077;28;83320;-43
2020/12/27 15:32:12;;;;;;;26.20;14.73;;;24.70;30.10;;;;;;6165734;28;83373;-43
2020/12/27 15:35:13;;;;;;;25.50;14.70;;;24.70;30.40;;;;;;6167094;28;83601;-44
2020/12/27 15:38:13;;;;;;;24.73;14.38;;;24.70;30.40;;;;;;6164323;27;83445;-43
2020/12/27 15:41:14;;;;;;;26.50;14.60;;;24.80;30.50;;;;;;6165204;28;83211;-43